Farmers Branch, Texas
Current Conditions -  °F | °C
As of 7:47 PM on Wednesday 22 Oct 2014 (Local Time) from KADS Reporting Station
Broken Clouds Broken Clouds  
Wind Chill: 75°   Ceiling: 15000
Heat Index: 75°   Visibility: 13mi
Dew Point: 54°   Wind: 8mph
Humidity: 47%   Direction: 110°ESE
Pressure: 30.1"   Gusts: NA
Location:  32.92°N, 96.89°W
Report Text: KADS 230047Z 11007KT 13SM BKN150 24/12 A3010
Loading
Personal Weather Stations






























Interactive Weather Map
Tropical Storm Tracking
New forecast layout! Learn more

10-Day Weather Forecast

Advertisements
Track Severe Weather on mobile